• Join FlightAware (Why Join?)
  • Login
  • US Flag 
05:36AM EDT


 

Airport Tracker/Info


-or-


 

Live Flight TrackerFlight Track Log ✈ UAL4380 ✈ 25-Apr-2013 ✈ KIAH - KDAL

Flight Track Log - Related Links

Times and Time Zones

All times are in EDT time to prevent confusion due to time zone crossing. See the UAL4380 flight status page for this flight to view local times or setup timezone preferences in your user account.

Time Position Orientation Groundspeed Altitude Reporting Facility
EDT Latitude Longitude Course Direction KTS MPH feet Rate Location/Type
09:06AM 29.9597 -95.3439 334° Northwest 165 190 700  Level Houston Center
09:07AM 29.9250 -95.3794 222° Southwest 239 275 2,400 1,680 Climbing Houston Center
09:08AM 29.9792 -95.4036 339° North 234 269 4,200 1,920 Climbing Houston Center
09:09AM 30.2239 -95.4712 332° Northwest  Level FlightAware Approximate
09:09AM 30.0525 -95.4108 355° North 251 289 6,500  Level Houston Center
09:10AM 30.3027 -95.5204 332° Northwest  Level FlightAware Approximate
09:10AM 30.1275 -95.4181 355° North 265 305 8,900  Level Houston Center
09:11AM 30.3823 -95.5679 334° Northwest  Level FlightAware Approximate
09:11AM 30.2161 -95.4547 340° North 291 335 10,600  Level Houston Center
09:12AM 30.2953 -95.5031 332° Northwest 325 374 11,600 1,020 Climbing Houston Center
09:13AM 30.3825 -95.5569 332° Northwest 351 404 12,800 1,200 Climbing Houston Center
09:14AM 30.4717 -95.6136 331° Northwest 362 417 14,100 1,200 Climbing Houston Center
09:15AM 30.5639 -95.6686 333° Northwest 373 429 15,300 960 Climbing Houston Center
09:16AM 30.6589 -95.7189 336° Northwest 374 430 16,100 300 Climbing Houston Center
09:17AM 30.7633 -95.7736 336° Northwest 391 450 16,000 -60 Descending Houston Center
09:18AM 30.8811 -95.8364 335° Northwest 388 447 16,000  Level Houston Center
09:19AM 30.9775 -95.8889 335° Northwest 383 441 16,000  Level Houston Center
09:20AM 31.0731 -95.9400 335° Northwest 377 434 16,000  Level Houston Center
09:21AM 31.1528 -95.9739 340° North 409 471 16,100  Climbing Fort Worth Center
09:22AM 31.2597 -95.9967 350° North 401 461 16,100  Level Fort Worth Center
09:23AM 31.3686 -96.0264 347° North 396 456 16,100 -60 Level Fort Worth Center
09:24AM 31.4628 -96.0469 349° North 391 450 16,000  Descending Fort Worth Center
09:25AM 31.5717 -96.0747 348° North 396 456 16,100  Climbing Fort Worth Center
09:26AM 31.6761 -96.1000 348° North 394 453 16,100  Level Fort Worth Center
09:27AM 31.7831 -96.1231 350° North 389 448 16,100 -60 Level Fort Worth Center
09:28AM 31.8897 -96.1483 349° North 393 452 16,000 -60 Descending Fort Worth Center
09:29AM 31.9944 -96.1739 348° North 393 452 16,000  Level Fort Worth Center
09:30AM 32.1011 -96.1969 350° North 388 447 16,000 -1,380 Level Fort Worth Center
09:31AM 32.2014 -96.2275 346° North 388 447 13,300 -2,520 Descending Fort Worth Center
09:32AM 32.2897 -96.2806 333° Northwest 358 412 11,000 -1,680 Descending Fort Worth Center
09:33AM 32.3717 -96.3286 334° Northwest 318 366 10,000 -1,020 Descending Fort Worth Center
09:34AM 32.4325 -96.3647 333° Northwest 280 322 9,000 -540 Descending Fort Worth Center
09:35AM 32.5078 -96.4033 337° Northwest 270 311 9,000 -660 Level Fort Worth Center
09:36AM 32.5728 -96.4347 338° Northwest 270 311 7,700 -1,560 Descending Fort Worth Center
09:37AM 32.6442 -96.4758 334° Northwest 270 311 5,900 -1,320 Descending Fort Worth Center
09:38AM 32.7028 -96.5122 332° Northwest 264 304 5,100 -480 Descending Fort Worth Center
09:39AM 32.7761 -96.5561 333° Northwest 264 304 5,000 -60 Descending Fort Worth Center
09:40AM 32.8308 -96.5925 331° Northwest 259 298 5,000 -60 Level Fort Worth Center
09:41AM 32.8875 -96.6639 313° West 259 298 4,900 -840 Descending Fort Worth Center
09:42AM 32.9317 -96.7228 312° West 265 305 3,400 -960 Descending Fort Worth Center
09:43AM 32.9500 -96.8000 286° West 238 274 3,000 -240 Descending Dallas / Fort Worth TRACON
09:44AM 32.9500 -96.8833 270° West 209 241 3,000  Level Dallas / Fort Worth TRACON